Time;durP1;ratioP1;P1;durP2;ratioP2;P2;SDS_P1;SDS_P2;PMS_P1;PMS_P2;Temp;Humidity;BMP_temperature;BMP_pressure;BME280_temperature;BME280_humidity;BME280_pressure;Samples;Min_cycle;Max_cycle;Signal;HPM_P1;HPM_P2
2022/11/06 00:01:32;;;;;;;21.13;10.90;;;;;;;14.47;64.67;99167.94;5013749;28;20431;-79
2022/11/06 00:03:57;;;;;;;18.67;9.57;;;;;;;15.57;64.31;99342.22;5012435;28;20026;-79
2022/11/06 00:09:09;;;;;;;14.60;8.90;;;;;;;15.33;63.93;99297.72;5013473;28;20111;-79
2022/11/06 00:11:35;;;;;;;15.55;9.15;;;;;;;15.53;64.07;99338.31;5013374;28;20026;-79
2022/11/06 00:14:01;;;;;;;11.80;8.52;;;;;;;15.26;64.22;99291.63;5013372;28;20100;-79
2022/11/06 00:16:27;;;;;;;16.52;9.32;;;;;;;15.51;63.75;99335.06;5013312;28;20562;-79
2022/11/06 00:18:53;;;;;;;17.23;9.55;;;;;;;15.31;63.74;99304.28;5013244;28;20097;-79
2022/11/06 00:21:22;;;;;;;13.85;9.00;;;;;;;15.48;63.50;99366.59;5013082;28;20055;-79
2022/11/06 00:23:48;;;;;;;20.30;9.95;;;;;;;15.13;63.15;99294.38;5013401;28;20028;-79
2022/11/06 00:26:21;;;;;;;17.65;9.18;;;;;;;14.72;63.12;99228.31;5011842;28;20116;-79
2022/11/06 00:28:48;;;;;;;17.20;9.98;;;;;;;14.30;63.33;99172.91;5013212;28;20069;-79
2022/11/06 00:31:17;;;;;;;24.33;12.80;;;;;;;15.39;63.04;99357.22;5013033;28;20028;-79
2022/11/06 00:33:43;;;;;;;17.60;11.75;;;;;;;15.39;63.18;99334.09;5013020;28;20022;-79
2022/11/06 00:36:15;;;;;;;20.35;11.98;;;;;;;15.37;62.82;99346.81;5013359;28;20060;-79
2022/11/06 00:38:41;;;;;;;15.52;11.27;;;;;;;13.03;62.77;98960.41;5013037;28;20025;-79
2022/11/06 00:41:10;;;;;;;22.65;12.88;;;;;;;15.31;63.05;99328.22;5012883;28;20025;-79
2022/11/06 00:43:36;;;;;;;18.85;12.93;;;;;;;15.29;62.75;99331.09;5013273;28;20030;-79
2022/11/06 00:46:04;;;;;;;21.80;14.57;;;;;;;15.28;62.75;99334.78;5012811;28;20097;-79
2022/11/06 00:48:29;;;;;;;23.30;16.00;;;;;;;15.23;62.72;99330.09;5012865;28;20561;-79
2022/11/06 00:51:00;;;;;;;22.38;16.27;;;;;;;15.23;62.67;99335.44;5012794;28;20164;-79
2022/11/06 00:53:25;;;;;;;24.80;17.42;;;;;;;14.25;62.41;99186.00;5011429;28;20064;-79
2022/11/06 00:55:51;;;;;;;23.70;18.58;;;;;;;15.17;62.50;99349.56;5012594;28;20096;-79
2022/11/06 00:58:16;;;;;;;25.35;18.45;;;;;;;15.08;62.63;99329.56;5012503;28;20030;-79
2022/11/06 01:00:41;;;;;;;20.70;16.65;;;;;;;15.12;62.61;99332.63;5011162;28;20025;-79
2022/11/06 01:03:07;;;;;;;24.73;17.63;;;;;;;15.11;62.57;99344.28;5012434;28;20018;-79
2022/11/06 01:05:32;;;;;;;24.85;17.23;;;;;;;14.31;62.37;99226.81;5012714;28;20033;-79
2022/11/06 01:07:57;;;;;;;28.15;17.77;;;;;;;15.06;62.39;99330.81;5012328;28;20049;-80
2022/11/06 01:10:23;;;;;;;29.40;17.77;;;;;;;15.02;62.54;99330.44;5012193;28;20026;-79
2022/11/06 01:12:48;;;;;;;29.77;18.60;;;;;;;14.76;62.56;99306.59;5012217;28;20513;-79
2022/11/06 01:15:14;;;;;;;31.15;18.13;;;;;;;14.87;62.46;99320.06;5012475;28;20024;-79
2022/11/06 01:17:39;;;;;;;27.90;18.27;;;;;;;14.97;62.54;99332.09;5012320;28;20400;-79
2022/11/06 01:20:05;;;;;;;27.10;17.25;;;;;;;14.10;62.53;99198.69;5012130;28;20105;-79
2022/11/06 01:22:30;;;;;;;24.27;16.77;;;;;;;14.94;62.63;99330.66;5011436;28;20030;-79
2022/11/06 01:24:56;;;;;;;25.95;17.80;;;;;;;14.96;62.48;99325.13;5012249;28;20029;-79
2022/11/06 01:27:21;;;;;;;22.02;16.13;;;;;;;14.28;62.73;99216.63;5012129;28;20022;-80
2022/11/06 01:29:47;;;;;;;26.10;16.25;;;;;;;14.94;62.68;99328.00;5012104;28;20104;-79
2022/11/06 01:32:12;;;;;;;22.17;15.25;;;;;;;14.19;62.35;99217.88;5012128;28;20029;-79
2022/11/06 01:34:38;;;;;;;20.45;15.70;;;;;;;14.31;62.47;99234.78;5012191;28;20104;-79
2022/11/06 01:37:03;;;;;;;24.55;16.67;;;;;;;14.15;62.72;99221.97;5012191;28;20101;-79
2022/11/06 01:39:29;;;;;;;24.20;16.35;;;;;;;14.38;62.47;99263.97;5012240;28;20022;-79
2022/11/06 01:41:55;;;;;;;26.17;17.63;;;;;;;14.77;62.40;99305.56;5012147;28;20025;-79
2022/11/06 01:44:33;;;;;;;23.23;17.33;;;;;;;14.90;62.53;99332.94;5011914;28;20026;-79
2022/11/06 01:47:00;;;;;;;21.70;16.63;;;;;;;14.73;62.59;99301.69;5011757;28;20510;-79
2022/11/06 01:49:31;;;;;;;23.40;17.45;;;;;;;14.35;62.37;99246.63;5011841;28;20037;-79
2022/11/06 01:52:01;;;;;;;21.50;16.73;;;;;;;14.58;62.77;99286.00;5011850;28;20022;-79
2022/11/06 01:54:29;;;;;;;24.73;16.55;;;;;;;14.87;62.76;99325.38;5011771;28;20033;-79
2022/11/06 01:56:57;;;;;;;20.40;16.70;;;;;;;14.86;62.64;99333.53;5011616;28;20105;-79
2022/11/06 01:59:27;;;;;;;24.77;16.20;;;;;;;14.19;62.44;99229.31;5011602;28;20495;-79
2022/11/06 02:01:53;;;;;;;22.13;16.00;;;;;;;14.62;62.99;99301.31;5011543;28;20018;-79
2022/11/06 02:04:30;;;;;;;26.17;17.08;;;;;;;14.74;62.95;99340.53;5011487;28;20044;-79
2022/11/06 02:06:58;;;;;;;19.27;15.98;;;;;;;14.39;63.07;99278.91;5011316;28;20050;-79
2022/11/06 02:09:24;;;;;;;24.58;17.42;;;;;;;14.25;62.90;99254.22;5011973;28;20021;-79
2022/11/06 02:11:56;;;;;;;24.20;16.35;;;;;;;14.71;63.03;99330.31;5011792;28;20545;-79
2022/11/06 02:14:24;;;;;;;;;;;;;;;14.55;63.66;99327.09;5012089;28;20026;-80
2022/11/06 02:16:50;;;;;;;30.83;18.10;;;;;;;14.64;63.40;99322.38;5011747;28;19916;-79
2022/11/06 02:19:47;;;;;;;29.67;19.27;;;;;;;14.65;63.74;99323.19;5011705;28;20025;-79
2022/11/06 02:22:25;;;;;;;28.02;18.77;;;;;;;14.66;63.95;99324.81;5008770;28;20061;-79
2022/11/06 02:25:11;;;;;;;23.77;18.98;;;;;;;14.47;63.88;99281.34;5011442;28;20018;-79
2022/11/06 02:27:39;;;;;;;27.70;18.15;;;;;;;13.64;63.64;99153.69;5011193;28;20457;-79
2022/11/06 02:30:12;;;;;;;30.55;19.48;;;;;;;13.44;63.61;99110.47;5011255;28;20137;-79
2022/11/06 02:32:56;;;;;;;28.25;18.85;;;;;;;13.91;63.55;99203.03;5011349;28;20495;-79
2022/11/06 02:35:28;;;;;;;27.02;19.17;;;;;;;14.28;63.58;99245.84;5013883;28;20025;-79
2022/11/06 02:38:02;;;;;;;26.77;18.77;;;;;;;14.07;63.88;99211.56;5015325;28;20029;-79
2022/11/06 02:40:32;;;;;;;23.35;18.42;;;;;;;14.65;64.05;99315.22;5015643;28;20026;-79
2022/11/06 02:43:00;;;;;;;33.78;20.95;;;;;;;14.38;63.73;99267.47;5015260;28;20018;-79
2022/11/06 02:45:28;;;;;;;26.80;18.38;;;;;;;14.11;63.97;99232.16;5015136;28;20106;-79
2022/11/06 02:47:57;;;;;;;26.38;18.35;;;;;;;14.60;64.23;99319.31;5015305;28;20030;-79
2022/11/06 02:50:31;;;;;;;25.42;18.48;;;;;;;14.60;64.51;99327.28;5014936;28;20049;-79
2022/11/06 02:53:03;;;;;;;25.13;19.27;;;;;;;13.96;64.42;99221.78;5013591;28;20404;-79
2022/11/06 02:55:44;;;;;;;27.20;19.45;;;;;;;14.59;64.63;99320.34;5015268;28;20048;-80
2022/11/06 02:58:15;;;;;;;28.93;19.00;;;;;;;14.59;64.64;99322.19;5014878;28;20029;-79
2022/11/06 03:00:47;;;;;;;27.45;19.90;;;;;;;13.08;64.47;99124.13;5014856;28;20486;-79
2022/11/06 03:03:33;;;;;;;;;;;;;;;14.49;65.14;99333.25;5015102;28;20025;-79
2022/11/06 03:06:08;;;;;;;27.65;19.25;;;;;;;13.52;64.78;99173.91;5014864;28;20382;-79
2022/11/06 03:09:03;;;;;;;25.88;19.83;;;;;;;14.50;65.20;99329.56;5014454;28;20124;-80
2022/11/06 03:11:32;;;;;;;24.70;19.52;;;;;;;14.00;64.88;99260.16;5014361;28;20044;-79
2022/11/06 03:14:18;;;;;;;24.73;19.88;;;;;;;13.97;64.74;99241.19;5013342;28;20029;-79
2022/11/06 03:17:28;;;;;;;26.63;19.30;;;;;;;14.52;65.00;99338.16;5014609;28;20018;-79
2022/11/06 03:20:02;;;;;;;25.35;20.08;;;;;;;14.54;64.83;99338.75;5012670;28;20026;-79
2022/11/06 03:23:01;;;;;;;30.52;21.33;;;;;;;13.86;64.89;99226.72;5014176;28;20541;-79
2022/11/06 03:25:51;;;;;;;29.33;20.48;;;;;;;13.46;64.71;99172.06;5014478;28;20483;-79
2022/11/06 03:28:33;;;;;;;30.88;21.67;;;;;;;14.48;64.73;99334.28;5014427;28;20030;-79
2022/11/06 03:31:04;;;;;;;32.22;20.70;;;;;;;14.25;64.87;99304.66;5014199;28;20030;-79
2022/11/06 03:33:37;;;;;;;27.05;19.83;;;;;;;14.07;64.41;99285.88;5014296;28;20101;-79
2022/11/06 03:36:24;;;;;;;28.98;21.17;;;;;;;14.44;64.68;99334.91;5014259;28;20037;-79
2022/11/06 03:38:53;;;;;;;29.33;21.08;;;;;;;14.42;64.44;99363.47;5014184;28;20413;-79
2022/11/06 03:41:27;;;;;;;27.23;20.10;;;;;;;14.40;64.21;99331.81;5014126;28;20495;-79
2022/11/06 03:43:58;;;;;;;27.85;23.00;;;;;;;14.25;64.45;99299.38;5014134;28;20422;-79
2022/11/06 03:46:25;;;;;;;29.77;23.42;;;;;;;13.96;64.51;99255.47;5013478;28;20096;-79
2022/11/06 03:49:03;;;;;;;28.33;21.83;;;;;;;14.39;64.68;99332.84;5013945;28;20022;-79
2022/11/06 03:51:28;;;;;;;30.95;24.17;;;;;;;14.34;64.81;99323.84;5013923;28;20026;-79
2022/11/06 03:54:22;;;;;;;36.35;25.52;;;;;;;14.09;65.30;99307.72;5012508;28;20028;-79
2022/11/06 03:56:57;;;;;;;34.25;25.48;;;;;;;12.96;65.16;99116.78;5013627;28;20549;-79
2022/11/06 03:59:28;;;;;;;34.92;24.77;;;;;;;13.08;64.95;99140.84;5013729;28;20021;-79
2022/11/06 04:01:56;;;;;;;30.48;24.38;;;;;;;13.81;64.80;99258.34;5013947;28;20100;-79
2022/11/06 04:05:03;;;;;;;31.27;24.40;;;;;;;14.22;64.85;99332.47;5013690;28;20029;-79
2022/11/06 04:07:40;;;;;;;28.38;23.08;;;;;;;13.80;64.83;99275.31;5013003;28;20112;-80
2022/11/06 04:15:51;;;;;;;30.60;21.92;;;;;;;13.46;64.34;99225.13;5013504;28;20037;-80
2022/11/06 04:18:18;;;;;;;29.10;22.48;;;;;;;14.21;64.15;99332.66;5013294;28;20026;-79
2022/11/06 04:21:22;;;;;;;30.30;21.70;;;;;;;13.31;63.87;99199.59;5013401;28;20410;-79
2022/11/06 04:27:14;;;;;;;27.70;23.70;;;;;;;14.14;63.87;99326.53;5013350;28;20513;-79
2022/11/06 04:30:03;;;;;;;31.10;23.80;;;;;;;14.13;63.96;99323.06;5013187;28;20033;-79
2022/11/06 04:32:56;;;;;;;29.55;24.67;;;;;;;14.14;64.00;99327.38;5013193;28;20026;-79
2022/11/06 04:35:29;;;;;;;30.30;23.77;;;;;;;14.10;64.19;99328.75;5013563;28;20109;-79
2022/11/06 04:38:34;;;;;;;30.92;24.10;;;;;;;13.77;63.92;99272.25;5013336;28;20113;-79
2022/11/06 04:41:11;;;;;;;30.83;24.48;;;;;;;13.83;63.98;99293.47;5012394;28;20510;-79
2022/11/06 04:43:50;;;;;;;38.78;23.98;;;;;;;14.07;63.87;99331.03;5012879;28;20109;-79
2022/11/06 04:46:24;;;;;;;30.88;23.30;;;;;;;14.03;64.19;99329.78;5013046;28;20529;-79
2022/11/06 04:48:51;;;;;;;33.42;23.48;;;;;;;13.07;64.26;99178.13;5011608;28;20018;-79
2022/11/06 04:51:22;;;;;;;34.30;24.13;;;;;;;13.96;64.21;99337.75;5012819;28;20055;-79
2022/11/06 04:53:50;;;;;;;38.63;25.02;;;;;;;12.36;64.01;99064.75;5012808;28;20045;-79
2022/11/06 04:56:22;;;;;;;35.33;24.25;;;;;;;13.45;64.22;99228.78;5012369;28;20022;-79
2022/11/06 04:58:48;;;;;;;33.45;24.95;;;;;;;13.02;64.14;99173.44;5012021;28;20105;-79
2022/11/06 05:01:13;;;;;;;32.78;24.27;;;;;;;13.15;64.39;99186.72;5012797;28;20044;-79
2022/11/06 05:03:39;;;;;;;34.55;24.52;;;;;;;12.99;64.37;99150.00;5012598;28;20113;-80
2022/11/06 05:06:04;;;;;;;34.40;24.13;;;;;;;13.30;64.33;99197.16;5012459;28;20053;-79
2022/11/06 05:08:30;;;;;;;31.45;25.10;;;;;;;13.49;64.27;99233.47;5012279;28;20049;-80
2022/11/06 05:10:55;;;;;;;37.88;27.42;;;;;;;14.12;64.28;99334.72;5012752;28;20467;-79
2022/11/06 05:13:21;;;;;;;30.95;24.92;;;;;;;14.12;64.22;99331.22;5012444;28;20028;-79
2022/11/06 05:15:46;;;;;;;36.67;25.50;;;;;;;13.88;64.17;99298.97;5012469;28;20097;-79
2022/11/06 05:18:11;;;;;;;33.90;26.25;;;;;;;12.54;63.78;99080.03;5012445;28;20041;-79
2022/11/06 05:20:37;;;;;;;31.45;25.50;;;;;;;14.12;64.18;99350.66;5012081;28;20017;-79
2022/11/06 05:23:02;;;;;;;32.25;24.85;;;;;;;14.03;63.64;99348.38;5012045;28;20108;-79
2022/11/06 05:25:33;;;;;;;37.90;26.88;;;;;;;14.14;63.71;99348.59;5012226;28;20087;-79
2022/11/06 05:28:01;;;;;;;33.95;26.48;;;;;;;14.08;63.62;99337.97;5012287;28;20033;-79
2022/11/06 05:30:26;;;;;;;36.67;25.33;;;;;;;14.15;63.70;99347.59;5012573;28;20104;-79
2022/11/06 05:32:52;;;;;;;38.83;26.73;;;;;;;13.94;63.42;99332.66;5012264;28;20020;-79
2022/11/06 05:35:19;;;;;;;36.35;26.92;;;;;;;13.39;63.64;99240.22;5011911;28;20388;-79
2022/11/06 05:37:44;;;;;;;37.08;26.75;;;;;;;13.84;63.52;99307.56;5011948;28;20026;-79
2022/11/06 05:40:10;;;;;;;36.45;26.60;;;;;;;14.19;63.62;99355.94;5010761;28;20474;-79
2022/11/06 05:42:37;;;;;;;38.92;27.08;;;;;;;14.20;63.51;99371.69;5012163;28;20022;-79
2022/11/06 05:45:02;;;;;;;32.97;26.65;;;;;;;13.88;63.61;99314.09;5011919;28;21091;-79
2022/11/06 05:47:28;;;;;;;35.85;28.77;;;;;;;13.08;63.93;99187.72;5011587;28;20029;-79
2022/11/06 05:49:53;;;;;;;39.22;30.30;;;;;;;13.23;64.07;99220.19;5011736;28;20018;-80
2022/11/06 05:52:19;;;;;;;42.42;30.95;;;;;;;13.58;64.03;99280.00;5011792;28;20433;-79
2022/11/06 05:54:44;;;;;;;42.75;31.17;;;;;;;13.94;64.18;99348.59;5010573;28;20461;-79
2022/11/06 05:57:09;;;;;;;40.28;31.92;;;;;;;13.46;64.00;99267.56;5011724;28;20025;-79
2022/11/06 05:59:35;;;;;;;38.05;29.50;;;;;;;13.48;64.02;99276.13;5010512;28;20029;-79
2022/11/06 06:02:00;;;;;;;41.13;32.33;;;;;;;14.23;63.90;99395.16;5011590;28;20083;-79
2022/11/06 06:04:26;;;;;;;42.80;31.17;;;;;;;13.17;63.85;99219.16;5010370;28;20029;-79
2022/11/06 06:06:51;;;;;;;42.10;30.55;;;;;;;13.98;63.94;99349.00;5011500;28;20048;-79
2022/11/06 06:09:17;;;;;;;39.67;30.10;;;;;;;14.15;63.96;99360.84;5011274;28;20032;-79
2022/11/06 06:11:42;;;;;;;38.67;31.10;;;;;;;14.39;64.06;99411.69;5011644;28;20122;-79
2022/11/06 06:14:08;;;;;;;37.08;29.48;;;;;;;13.29;63.97;99236.09;5011504;28;20054;-79
2022/11/06 06:16:33;;;;;;;36.65;28.60;;;;;;;14.32;64.12;99399.25;5011551;28;20053;-79
2022/11/06 06:18:58;;;;;;;39.00;30.75;;;;;;;14.07;64.00;99363.69;5011468;28;20022;-79
2022/11/06 06:21:24;;;;;;;35.80;30.17;;;;;;;14.27;64.38;99393.72;5011598;28;20387;-79
2022/11/06 06:23:50;;;;;;;42.08;31.60;;;;;;;13.62;64.03;99297.16;5011530;28;20095;-79
2022/11/06 06:26:15;;;;;;;43.35;31.55;;;;;;;14.51;64.40;99437.47;5011677;28;20576;-80
2022/11/06 06:28:41;;;;;;;41.35;30.05;;;;;;;14.40;64.08;99411.50;5010241;28;20105;-79
2022/11/06 06:31:07;;;;;;;48.88;34.05;;;;;;;14.55;64.06;99441.34;5011437;28;20037;-79
2022/11/06 06:33:32;;;;;;;44.80;33.28;;;;;;;13.60;64.12;99307.16;5011504;28;20026;-79
2022/11/06 06:36:04;;;;;;;41.30;34.40;;;;;;;14.31;64.08;99407.41;5011258;28;20026;-79
2022/11/06 06:38:30;;;;;;;44.55;35.28;;;;;;;14.61;64.13;99448.50;5011291;28;20072;-79
2022/11/06 06:41:03;;;;;;;42.55;33.42;;;;;;;14.65;64.17;99456.06;5011367;28;20030;-79
2022/11/06 06:43:28;;;;;;;39.30;30.70;;;;;;;13.81;64.35;99315.91;5010104;28;20466;-79
2022/11/06 06:45:58;;;;;;;43.83;33.60;;;;;;;14.68;64.37;99455.63;5011378;28;20026;-79
2022/11/06 06:48:24;;;;;;;41.50;33.70;;;;;;;14.73;64.22;99464.63;5011328;28;20033;-79
2022/11/06 06:50:49;;;;;;;49.70;37.25;;;;;;;14.76;64.43;99469.53;5011282;28;20021;-79
2022/11/06 06:53:15;;;;;;;46.25;35.95;;;;;;;14.08;64.00;99354.69;5011031;28;20517;-79
2022/11/06 06:55:40;;;;;;;51.40;36.80;;;;;;;13.14;64.26;99195.69;5009980;28;20030;-79
2022/11/06 06:58:06;;;;;;;53.60;41.28;;;;;;;13.93;64.31;99308.97;5011070;28;20022;-79
2022/11/06 07:00:32;;;;;;;64.35;42.70;;;;;;;14.58;64.05;99417.03;5010993;28;20022;-79
2022/11/06 07:02:57;;;;;;;60.78;42.10;;;;;;;14.77;63.94;99431.28;5011013;28;20057;-79
2022/11/06 07:05:23;;;;;;;60.15;43.22;;;;;;;14.45;64.31;99397.63;5011027;28;20104;-80
2022/11/06 07:07:49;;;;;;;53.17;41.15;;;;;;;15.03;64.17;99465.00;5009453;28;20129;-79
2022/11/06 07:10:14;;;;;;;63.10;44.85;;;;;;;14.53;64.10;99390.25;5011024;28;20030;-79
2022/11/06 07:12:40;;;;;;;63.42;45.92;;;;;;;14.30;63.81;99329.59;5011370;28;20030;-79
2022/11/06 07:15:06;;;;;;;63.33;46.67;;;;;;;14.85;63.84;99409.00;5010979;28;20033;-79
2022/11/06 07:17:32;;;;;;;66.47;46.85;;;;;;;14.89;63.69;99416.38;5009589;28;20482;-79
2022/11/06 07:19:57;;;;;;;65.55;46.47;;;;;;;14.19;63.92;99281.59;5011218;28;20018;-79
2022/11/06 07:22:26;;;;;;;68.07;49.05;;;;;;;15.33;63.63;99454.66;5014788;28;20026;-79
2022/11/06 07:24:51;;;;;;;71.32;50.13;;;;;;;14.93;63.73;99376.88;5014615;28;20028;-79
2022/11/06 07:27:16;;;;;;;66.60;46.85;;;;;;;14.60;63.72;99316.66;5014360;28;20449;-80
2022/11/06 07:29:42;;;;;;;57.83;41.10;;;;;;;15.41;63.92;99433.16;5014266;28;20026;-79
2022/11/06 07:32:08;;;;;;;52.10;38.72;;;;;;;15.44;63.68;99446.03;5014402;28;20089;-79
2022/11/06 07:34:33;;;;;;;51.50;34.55;;;;;;;15.39;63.94;99418.41;5014344;28;20026;-79
2022/11/06 07:36:59;;;;;;;50.97;35.40;;;;;;;15.45;63.77;99425.56;5014240;28;20018;-79
2022/11/06 07:39:24;;;;;;;47.03;33.97;;;;;;;15.54;63.34;99435.75;5014238;28;20025;-79
2022/11/06 07:41:50;;;;;;;53.10;35.45;;;;;;;14.51;63.63;99272.75;5014095;28;20022;-79
2022/11/06 07:44:15;;;;;;;46.08;34.10;;;;;;;15.33;63.37;99398.81;5012835;28;20026;-79
2022/11/06 07:46:41;;;;;;;45.13;32.97;;;;;;;15.63;63.72;99449.69;5013759;28;20125;-79
2022/11/06 07:49:06;;;;;;;52.90;34.85;;;;;;;15.66;63.38;99437.78;5013624;28;20556;-80
2022/11/06 07:51:31;;;;;;;52.35;33.05;;;;;;;15.06;63.26;99334.28;5013848;28;20025;-79
2022/11/06 07:53:57;;;;;;;48.08;35.20;;;;;;;15.53;63.30;99418.16;5013925;28;20061;-79
2022/11/06 07:56:22;;;;;;;51.28;35.00;;;;;;;15.74;63.23;99434.88;5013707;28;20053;-79
2022/11/06 07:58:48;;;;;;;58.83;35.80;;;;;;;14.46;63.34;99230.06;5013784;28;20407;-79
2022/11/06 08:01:15;;;;;;;49.25;34.38;;;;;;;14.74;63.12;99256.31;5013889;28;20022;-79
2022/11/06 08:03:41;;;;;;;47.55;35.65;;;;;;;15.52;63.13;99381.91;5013837;28;20104;-79
2022/11/06 08:06:06;;;;;;;54.70;36.50;;;;;;;15.81;62.73;99425.00;5013716;28;20108;-79
2022/11/06 08:08:32;;;;;;;43.17;33.53;;;;;;;15.59;62.85;99389.88;5013443;28;20038;-80
2022/11/06 08:11:02;;;;;;;42.08;30.75;;;;;;;15.94;62.50;99432.91;5013557;28;20507;-79
2022/11/06 08:13:28;;;;;;;42.75;27.92;;;;;;;15.79;62.29;99400.44;5013512;28;20026;-79
2022/11/06 08:15:53;;;;;;;40.97;27.05;;;;;;;15.74;61.64;99373.66;5013545;28;20520;-79
2022/11/06 08:18:19;;;;;;;39.67;26.05;;;;;;;16.24;61.37;99458.91;5013417;28;20025;-79
2022/11/06 08:20:44;;;;;;;38.80;26.88;;;;;;;16.30;61.60;99469.50;5013543;28;20029;-79
2022/11/06 08:23:11;;;;;;;39.10;27.13;;;;;;;16.35;61.09;99461.72;5013239;28;20022;-80
2022/11/06 08:25:38;;;;;;;41.50;27.15;;;;;;;15.69;61.06;99342.34;5012040;28;20410;-79
2022/11/06 08:28:03;;;;;;;34.13;26.50;;;;;;;16.30;60.76;99432.22;5013178;28;20026;-79
2022/11/06 08:30:30;;;;;;;31.92;25.10;;;;;;;16.50;60.96;99453.38;5013232;28;20026;-79
2022/11/06 08:33:01;;;;;;;38.17;24.80;;;;;;;16.56;60.42;99447.19;5013052;28;20029;-79
2022/11/06 08:35:26;;;;;;;36.77;24.37;;;;;;;16.60;60.36;99455.56;5013159;28;20119;-79
2022/11/06 08:37:51;;;;;;;35.17;24.65;;;;;;;16.67;60.02;99456.34;5013171;28;20351;-79
2022/11/06 08:40:18;;;;;;;34.55;22.67;;;;;;;16.71;59.93;99470.88;5011817;28;20505;-78
2022/11/06 08:42:44;;;;;;;39.65;27.77;;;;;;;16.47;59.48;99441.31;5011653;28;20127;-79
2022/11/06 08:45:09;;;;;;;36.17;25.08;;;;;;;16.30;59.41;99386.09;5013131;28;20017;-79
2022/11/06 08:47:35;;;;;;;39.03;26.00;;;;;;;15.97;59.28;99344.59;5012762;28;20034;-79
2022/11/06 08:50:00;;;;;;;31.77;23.27;;;;;;;16.59;59.24;99406.75;5012689;28;20037;-79
2022/11/06 08:52:25;;;;;;;35.25;25.02;;;;;;;16.42;59.20;99371.88;5012860;28;20530;-79
2022/11/06 08:54:51;;;;;;;34.75;24.48;;;;;;;16.74;58.53;99420.59;5012742;28;20475;-79
2022/11/06 08:57:17;;;;;;;30.05;22.15;;;;;;;17.08;58.56;99461.88;5012548;28;20025;-79
2022/11/06 08:59:42;;;;;;;29.55;22.90;;;;;;;16.63;58.49;99369.81;5012547;28;20522;-79
2022/11/06 09:02:12;;;;;;;29.20;20.00;;;;;;;16.56;58.24;99353.09;5012699;28;20459;-79
2022/11/06 09:04:38;;;;;;;30.58;20.27;;;;;;;16.93;57.66;99399.25;5012530;28;20026;-79
2022/11/06 09:07:04;;;;;;;31.50;19.98;;;;;;;17.34;57.50;99444.75;5012228;28;20049;-79
2022/11/06 09:09:30;;;;;;;31.08;21.65;;;;;;;16.77;57.24;99344.66;5012265;28;20521;-79
2022/11/06 09:11:57;;;;;;;28.77;20.98;;;;;;;17.46;57.24;99450.16;5012380;28;20076;-79
2022/11/06 09:14:23;;;;;;;28.85;20.08;;;;;;;17.60;56.76;99464.97;5012363;28;20101;-79
2022/11/06 09:16:48;;;;;;;27.58;19.50;;;;;;;17.59;56.54;99427.81;5012324;28;20057;-79
2022/11/06 09:19:14;;;;;;;28.80;20.17;;;;;;;17.21;56.38;99364.88;5012414;28;20010;-79
2022/11/06 09:21:39;;;;;;;33.30;20.33;;;;;;;17.55;56.08;99410.63;5012443;28;20510;-79
2022/11/06 09:24:05;;;;;;;25.77;18.60;;;;;;;17.67;55.86;99425.66;5012391;28;20483;-79
2022/11/06 09:26:30;;;;;;;24.30;17.27;;;;;;;17.91;55.72;99447.94;5012074;28;20100;-79
2022/11/06 09:28:56;;;;;;;30.60;18.50;;;;;;;17.89;55.43;99426.00;5011842;28;20026;-79
2022/11/06 09:31:21;;;;;;;27.27;18.08;;;;;;;17.49;55.20;99356.28;5012100;28;20060;-79
2022/11/06 09:33:47;;;;;;;24.45;16.55;;;;;;;17.43;55.00;99328.66;5012103;28;20384;-78
2022/11/06 09:36:12;;;;;;;27.08;16.60;;;;;;;17.97;55.05;99408.81;5012052;28;20022;-79
2022/11/06 09:38:38;;;;;;;25.80;16.65;;;;;;;18.34;54.88;99445.03;5012108;28;20029;-79
2022/11/06 09:41:04;;;;;;;35.03;17.90;;;;;;;18.37;54.48;99457.91;5010781;28;20495;-79
2022/11/06 09:43:53;;;;;;;27.73;17.30;;;;;;;18.39;54.51;99447.00;5011808;28;20108;-78
2022/11/06 09:46:29;;;;;;;21.85;14.95;;;;;;;18.44;54.40;99444.44;5010759;28;20033;-79
2022/11/06 09:48:59;;;;;;;21.60;14.75;;;;;;;17.92;54.31;99357.94;5011884;28;20033;-78
2022/11/06 09:51:24;;;;;;;24.17;14.77;;;;;;;18.50;54.32;99435.50;5011970;28;20026;-79
2022/11/06 09:54:00;;;;;;;22.15;14.63;;;;;;;18.37;54.10;99417.00;5010656;28;20025;-79
2022/11/06 09:56:31;;;;;;;21.80;14.02;;;;;;;18.50;53.83;99418.63;5011826;28;20137;-78
2022/11/06 09:58:59;;;;;;;24.17;13.47;;;;;;;18.67;53.85;99433.00;5011768;28;20022;-79
2022/11/06 10:01:33;;;;;;;21.10;13.63;;;;;;;18.35;53.65;99371.81;5011660;28;20271;-79
2022/11/06 10:04:00;;;;;;;18.90;13.10;;;;;;;18.37;53.49;99372.38;5011613;28;20021;-78
2022/11/06 10:06:27;;;;;;;16.80;13.00;;;;;;;18.89;53.42;99427.88;5011674;28;20510;-78
2022/11/06 10:08:57;;;;;;;19.60;12.60;;;;;;;17.91;53.30;99254.81;5011697;28;20033;-78
2022/11/06 10:11:22;;;;;;;18.55;12.93;;;;;;;19.04;53.12;99428.19;5011589;28;20026;-79
2022/11/06 10:14:07;;;;;;;25.33;16.33;;;;;;;19.02;52.99;99411.56;5011388;28;20025;-78
2022/11/06 10:16:54;;;;;;;21.77;13.05;;;;;;;18.45;52.99;99335.66;5011782;28;20034;-79
2022/11/06 10:19:48;;;;;;;17.42;13.52;;;;;;;19.09;53.22;99414.91;5011521;28;20029;-78
2022/11/06 10:22:22;;;;;;;20.13;13.27;;;;;;;19.05;53.13;99409.22;5011357;28;20041;-78
2022/11/06 10:25:03;;;;;;;18.98;14.15;;;;;;;19.18;52.72;99410.00;5011403;28;20136;-79
2022/11/06 10:27:43;;;;;;;24.38;14.75;;;;;;;19.23;52.28;99402.88;5011590;28;20030;-78
2022/11/06 10:30:17;;;;;;;23.13;14.02;;;;;;;19.16;52.45;99386.16;5011459;28;20505;-79
2022/11/06 10:33:04;;;;;;;22.02;13.75;;;;;;;19.33;52.48;99405.78;5011404;28;20053;-78
2022/11/06 10:35:39;;;;;;;20.92;13.88;;;;;;;18.78;52.40;99316.34;5011196;28;20036;-79
2022/11/06 10:38:36;;;;;;;23.13;13.75;;;;;;;19.47;52.37;99392.94;5011250;28;20109;-79
2022/11/06 10:41:02;;;;;;;21.52;13.02;;;;;;;19.12;51.98;99331.47;5011322;28;20042;-78
2022/11/06 10:43:41;;;;;;;20.80;13.18;;;;;;;19.43;52.07;99362.34;5011669;28;20111;-78
2022/11/06 10:46:37;;;;;;;17.42;12.15;;;;;;;19.65;51.95;99392.75;5011464;28;20396;-79
2022/11/06 10:49:26;;;;;;;15.75;12.73;;;;;;;19.70;51.65;99392.03;5011403;28;20041;-78
2022/11/06 10:52:07;;;;;;;16.65;12.10;;;;;;;19.41;51.36;99334.16;5010848;28;20086;-78
2022/11/06 10:55:10;;;;;;;17.83;12.10;;;;;;;19.84;50.58;99379.16;5011545;28;20022;-78
2022/11/06 10:57:45;;;;;;;16.30;11.40;;;;;;;19.86;51.08;99374.34;5015253;28;20101;-77
2022/11/06 11:00:12;;;;;;;15.23;11.70;;;;;;;19.40;50.71;99295.88;5014951;28;20021;-78
2022/11/06 11:02:43;;;;;;;20.70;11.32;;;;;;;19.40;50.60;99282.50;5014946;28;20033;-78
2022/11/06 11:05:18;;;;;;;16.58;10.63;;;;;;;19.85;50.61;99338.72;5014823;28;20098;-77
2022/11/06 11:07:45;;;;;;;18.50;11.93;;;;;;;20.02;50.34;99364.69;5014346;28;20046;-78
2022/11/06 11:10:23;;;;;;;15.88;10.60;;;;;;;20.04;50.19;99359.91;5014367;28;20030;-78
2022/11/06 11:12:49;;;;;;;20.08;11.63;;;;;;;20.03;50.19;99352.91;5014477;28;20022;-79
2022/11/06 11:15:18;;;;;;;19.50;13.90;;;;;;;19.38;50.28;99244.44;5013225;28;20056;-79
2022/11/06 11:18:12;;;;;;;21.77;14.82;;;;;;;19.58;50.15;99300.22;5014455;28;20510;-79
2022/11/06 11:20:43;;;;;;;27.25;16.63;;;;;;;19.31;50.54;99260.63;5014773;28;20104;-79
2022/11/06 11:23:27;;;;;;;25.50;16.30;;;;;;;19.00;50.79;99221.00;5014169;28;20464;-78
2022/11/06 11:25:55;;;;;;;23.63;16.38;;;;;;;19.80;50.74;99354.72;5014263;28;20036;-78
2022/11/06 11:28:36;;;;;;;23.83;15.52;;;;;;;19.82;50.90;99357.94;5014481;28;20565;-78
2022/11/06 11:31:12;;;;;;;25.73;15.00;;;;;;;19.14;50.82;99246.41;5014362;28;20037;-79
2022/11/06 11:33:40;;;;;;;18.33;13.02;;;;;;;19.81;50.73;99347.47;5014281;28;20014;-78
2022/11/06 11:36:07;;;;;;;17.58;14.13;;;;;;;19.81;50.52;99355.53;5014335;28;20029;-79
2022/11/06 11:38:36;;;;;;;21.67;14.40;;;;;;;19.83;50.68;99342.69;5014152;28;20080;-79
2022/11/06 11:41:25;;;;;;;17.88;13.82;;;;;;;19.85;50.60;99344.06;5014404;28;20041;-78
2022/11/06 11:44:04;;;;;;;23.25;13.52;;;;;;;19.71;50.88;99313.31;5013795;28;20038;-79